Time;durP1;ratioP1;P1;durP2;ratioP2;P2;SDS_P1;SDS_P2;PMS_P1;PMS_P2;Temp;Humidity;BMP_temperature;BMP_pressure;BME280_temperature;BME280_humidity;BME280_pressure;Samples;Min_cycle;Max_cycle;Signal;HPM_P1;HPM_P2
2024/03/22 00:02:19;;;;;;;20.17;10.82;;;;;;;;;;6161858;28;20093;-84
2024/03/22 00:05:21;;;;;;;23.92;10.60;;;;;;;;;;6179965;28;20050;-83
2024/03/22 00:08:22;;;;;;;23.88;10.82;;;;;;;;;;6189967;28;20053;-84
2024/03/22 00:11:23;;;;;;;19.50;9.82;;;;;;;;;;6168705;28;20053;-83
2024/03/22 00:14:23;;;;;;;21.10;9.52;;;;;;;;;;6168790;28;20042;-83
2024/03/22 00:17:24;;;;;;;19.38;9.43;;;;;;;;;;6165873;28;20077;-84
2024/03/22 00:20:25;;;;;;;24.65;9.88;;;;;;;;;;6190454;28;20507;-83
2024/03/22 00:23:26;;;;;;;22.30;8.70;;;;;;;;;;6179878;28;20049;-83
2024/03/22 00:26:27;;;;;;;18.17;8.52;;;;;;;;;;6169092;28;20050;-84
2024/03/22 00:29:28;;;;;;;15.50;8.23;;;;;;;;;;6194614;28;20116;-84
2024/03/22 00:32:29;;;;;;;15.77;8.38;;;;;;;;;;6166831;28;20038;-84
2024/03/22 00:35:29;;;;;;;17.85;8.30;;;;;;;;;;6184488;28;20115;-83
2024/03/22 00:38:30;;;;;;;18.88;8.98;;;;;;;;;;6187633;28;20042;-83
2024/03/22 00:41:31;;;;;;;22.20;8.95;;;;;;;;;;6180097;28;20045;-83
2024/03/22 00:44:32;;;;;;;19.08;9.05;;;;;;;;;;6168862;28;20041;-83
2024/03/22 00:47:32;;;;;;;18.90;9.43;;;;;;;;;;6189510;28;20141;-83
2024/03/22 00:50:33;;;;;;;20.83;9.65;;;;;;;;;;6182065;28;20042;-83
2024/03/22 00:53:34;;;;;;;17.58;9.55;;;;;;;;;;6186158;28;21190;-84
2024/03/22 00:56:35;;;;;;;20.08;8.55;;;;;;;;;;6169080;28;20038;-84
2024/03/22 00:59:36;;;;;;;19.00;9.30;;;;;;;;;;6185954;28;20650;-84
2024/03/22 01:02:36;;;;;;;17.25;9.02;;;;;;;;;;6180485;28;20050;-84
2024/03/22 01:05:37;;;;;;;20.08;9.00;;;;;;;;;;6180884;28;20064;-83
2024/03/22 01:08:38;;;;;;;17.85;8.27;;;;;;;;;;6176774;28;20054;-84
2024/03/22 01:11:38;;;;;;;21.80;9.18;;;;;;;;;;6188255;28;20089;-84
2024/03/22 01:14:39;;;;;;;18.33;8.65;;;;;;;;;;6167470;28;20042;-84
2024/03/22 01:17:40;;;;;;;19.15;9.15;;;;;;;;;;6198727;28;20555;-83
2024/03/22 01:20:42;;;;;;;16.10;8.27;;;;;;;;;;6190470;28;20054;-84
2024/03/22 01:23:42;;;;;;;19.73;9.13;;;;;;;;;;6180642;28;20540;-84
2024/03/22 01:26:43;;;;;;;18.98;8.77;;;;;;;;;;6180073;28;20053;-85
2024/03/22 01:29:44;;;;;;;22.38;9.38;;;;;;;;;;6161759;28;20051;-84
2024/03/22 01:32:45;;;;;;;21.77;10.05;;;;;;;;;;6189984;28;20046;-84
2024/03/22 01:35:45;;;;;;;23.00;9.63;;;;;;;;;;6171348;28;20050;-83
2024/03/22 01:38:46;;;;;;;24.85;9.98;;;;;;;;;;6173927;28;20050;-83
2024/03/22 01:41:48;;;;;;;20.63;9.27;;;;;;;;;;6186265;28;20046;-83
2024/03/22 01:44:49;;;;;;;28.58;10.68;;;;;;;;;;6167491;28;20112;-84
2024/03/22 01:47:53;;;;;;;24.35;10.57;;;;;;;;;;6156596;28;20038;-85
2024/03/22 01:50:54;;;;;;;22.10;9.57;;;;;;;;;;6169658;28;20054;-83
2024/03/22 01:53:56;;;;;;;27.08;9.95;;;;;;;;;;6154981;28;20046;-84
2024/03/22 01:56:56;;;;;;;24.70;9.30;;;;;;;;;;6182175;28;20594;-84
2024/03/22 01:59:59;;;;;;;25.10;10.13;;;;;;;;;;6162529;28;20050;-84
2024/03/22 02:03:00;;;;;;;23.80;10.40;;;;;;;;;;6171437;28;20054;-84
2024/03/22 02:06:00;;;;;;;26.35;10.75;;;;;;;;;;6192011;28;20049;-84
2024/03/22 02:09:04;;;;;;;27.80;10.70;;;;;;;;;;6166339;28;20049;-84
2024/03/22 02:12:05;;;;;;;25.60;9.95;;;;;;;;;;6177129;28;20077;-84
2024/03/22 02:15:06;;;;;;;20.73;9.35;;;;;;;;;;6168474;28;20054;-84
2024/03/22 02:18:07;;;;;;;23.30;9.95;;;;;;;;;;6193760;28;20053;-85
2024/03/22 02:21:08;;;;;;;21.98;10.15;;;;;;;;;;6179930;28;20050;-84
2024/03/22 02:24:09;;;;;;;27.90;10.85;;;;;;;;;;6177315;28;20117;-85
2024/03/22 02:27:09;;;;;;;25.15;10.63;;;;;;;;;;6199997;28;20090;-84
2024/03/22 02:30:10;;;;;;;23.90;9.93;;;;;;;;;;6178765;28;20050;-83
2024/03/22 02:33:11;;;;;;;25.90;10.55;;;;;;;;;;6181021;28;20038;-83
2024/03/22 02:36:11;;;;;;;22.25;9.77;;;;;;;;;;6183949;28;20053;-84
2024/03/22 02:39:12;;;;;;;21.00;9.52;;;;;;;;;;6174075;28;20073;-84
2024/03/22 02:42:13;;;;;;;27.13;11.07;;;;;;;;;;6196866;28;20038;-84
2024/03/22 02:45:13;;;;;;;29.17;10.82;;;;;;;;;;6196571;28;20050;-84
2024/03/22 02:48:14;;;;;;;30.45;11.15;;;;;;;;;;6177286;28;20068;-84
2024/03/22 02:51:15;;;;;;;30.63;11.32;;;;;;;;;;6161688;28;20046;-84
2024/03/22 02:54:15;;;;;;;34.03;12.45;;;;;;;;;;6185669;28;20042;-84
2024/03/22 02:57:16;;;;;;;34.17;12.25;;;;;;;;;;6174969;28;20054;-84
2024/03/22 03:00:18;;;;;;;31.77;11.57;;;;;;;;;;6175344;28;20050;-83
2024/03/22 03:03:18;;;;;;;34.78;12.20;;;;;;;;;;6174367;28;21187;-84
2024/03/22 03:06:19;;;;;;;35.45;11.95;;;;;;;;;;6183119;28;20089;-84
2024/03/22 03:09:20;;;;;;;33.72;11.77;;;;;;;;;;6193734;28;20035;-84
2024/03/22 03:12:21;;;;;;;34.13;11.90;;;;;;;;;;6179113;28;20042;-84
2024/03/22 03:15:21;;;;;;;29.23;11.85;;;;;;;;;;6181123;28;20054;-84
2024/03/22 03:18:22;;;;;;;33.17;12.18;;;;;;;;;;6180118;28;20085;-84
2024/03/22 03:21:23;;;;;;;33.63;12.15;;;;;;;;;;6179093;28;20042;-83
2024/03/22 03:24:24;;;;;;;26.98;10.45;;;;;;;;;;6178023;28;20066;-84
2024/03/22 03:27:24;;;;;;;27.70;10.98;;;;;;;;;;6170264;28;20526;-84
2024/03/22 03:30:25;;;;;;;28.65;11.10;;;;;;;;;;6151770;28;20478;-84
2024/03/22 03:33:26;;;;;;;32.67;11.70;;;;;;;;;;6161205;28;20045;-84
2024/03/22 03:36:27;;;;;;;34.50;12.27;;;;;;;;;;6180651;28;20065;-85
2024/03/22 03:39:29;;;;;;;32.88;12.48;;;;;;;;;;6163118;28;20043;-84
2024/03/22 03:42:30;;;;;;;38.25;13.18;;;;;;;;;;6188725;28;20056;-84
2024/03/22 03:45:30;;;;;;;32.90;12.68;;;;;;;;;;6191369;28;20399;-84
2024/03/22 03:48:31;;;;;;;35.17;12.55;;;;;;;;;;6199991;28;20049;-84
2024/03/22 03:51:32;;;;;;;33.80;12.38;;;;;;;;;;6175620;28;20076;-85
2024/03/22 03:54:32;;;;;;;31.33;12.27;;;;;;;;;;6187375;28;20053;-83
2024/03/22 03:57:33;;;;;;;33.03;11.82;;;;;;;;;;6171697;28;20046;-84
2024/03/22 04:00:34;;;;;;;38.55;13.15;;;;;;;;;;6183041;28;20065;-83
2024/03/22 04:03:35;;;;;;;37.05;13.93;;;;;;;;;;6175559;28;20057;-83
2024/03/22 04:06:36;;;;;;;36.38;12.68;;;;;;;;;;6152267;28;20034;-84
2024/03/22 04:09:36;;;;;;;32.63;12.10;;;;;;;;;;6175474;28;20220;-85
2024/03/22 04:12:37;;;;;;;38.03;13.73;;;;;;;;;;6166902;28;20073;-84
2024/03/22 04:15:38;;;;;;;31.50;12.38;;;;;;;;;;6174546;28;20207;-84
2024/03/22 04:18:39;;;;;;;35.67;12.05;;;;;;;;;;6160932;28;20065;-84
2024/03/22 04:21:39;;;;;;;38.17;13.98;;;;;;;;;;6174093;28;20093;-84
2024/03/22 04:24:40;;;;;;;32.58;11.98;;;;;;;;;;6175261;28;20046;-83
2024/03/22 04:27:41;;;;;;;32.53;12.00;;;;;;;;;;6189456;28;20042;-83
2024/03/22 04:30:41;;;;;;;32.03;11.88;;;;;;;;;;6172832;28;20069;-82
2024/03/22 04:33:42;;;;;;;30.00;11.70;;;;;;;;;;6157056;28;20530;-85
2024/03/22 04:36:43;;;;;;;38.67;13.40;;;;;;;;;;6172555;28;20441;-84
2024/03/22 04:39:46;;;;;;;33.13;13.07;;;;;;;;;;6172965;28;20050;-85
2024/03/22 04:42:46;;;;;;;34.92;12.57;;;;;;;;;;6167219;28;20053;-85
2024/03/22 04:45:47;;;;;;;31.35;12.40;;;;;;;;;;6160585;28;20125;-83
2024/03/22 04:48:48;;;;;;;31.42;12.43;;;;;;;;;;6170468;28;20050;-84
2024/03/22 04:51:49;;;;;;;51.70;20.15;;;;;;;;;;6185092;28;20488;-84
2024/03/22 04:54:50;;;;;;;44.22;17.17;;;;;;;;;;6189887;28;20042;-84
2024/03/22 04:57:52;;;;;;;34.30;13.38;;;;;;;;;;6184507;28;20070;-85
2024/03/22 05:00:57;;;;;;;31.80;13.10;;;;;;;;;;6172829;28;20530;-84
2024/03/22 05:03:58;;;;;;;41.38;13.80;;;;;;;;;;6169822;28;20050;-84
2024/03/22 05:06:58;;;;;;;31.83;14.15;;;;;;;;;;6170743;28;20396;-84
2024/03/22 05:09:59;;;;;;;31.92;12.15;;;;;;;;;;6154876;28;20440;-84
2024/03/22 05:13:00;;;;;;;32.58;13.02;;;;;;;;;;6150464;28;20060;-84
2024/03/22 05:16:01;;;;;;;35.90;13.32;;;;;;;;;;6155597;28;20500;-84
2024/03/22 05:19:02;;;;;;;36.10;15.07;;;;;;;;;;6153267;28;20079;-84
2024/03/22 05:22:03;;;;;;;29.45;13.85;;;;;;;;;;6155960;28;20074;-84
2024/03/22 05:25:04;;;;;;;36.03;13.63;;;;;;;;;;6183297;28;20434;-83
2024/03/22 05:28:05;;;;;;;30.20;12.25;;;;;;;;;;6182617;28;20058;-83
2024/03/22 05:31:05;;;;;;;34.20;13.63;;;;;;;;;;6162257;28;20284;-83
2024/03/22 05:34:06;;;;;;;37.70;12.60;;;;;;;;;;6174908;28;20050;-83
2024/03/22 05:37:08;;;;;;;36.08;14.18;;;;;;;;;;6161858;28;20093;-82
2024/03/22 05:40:10;;;;;;;34.63;13.57;;;;;;;;;;6180132;28;20038;-82
2024/03/22 05:43:11;;;;;;;37.08;13.70;;;;;;;;;;6180085;28;20449;-82
2024/03/22 05:46:12;;;;;;;30.23;13.65;;;;;;;;;;6171817;28;20522;-82
2024/03/22 05:49:13;;;;;;;37.60;16.05;;;;;;;;;;6171547;28;20042;-82
2024/03/22 05:52:14;;;;;;;36.38;13.98;;;;;;;;;;6168331;28;20706;-82
2024/03/22 05:55:14;;;;;;;35.08;14.00;;;;;;;;;;6169907;28;20054;-82
2024/03/22 05:58:15;;;;;;;38.97;13.90;;;;;;;;;;6185496;28;20130;-82
2024/03/22 06:01:16;;;;;;;34.13;13.98;;;;;;;;;;6194661;28;20057;-82
2024/03/22 06:04:16;;;;;;;37.60;13.35;;;;;;;;;;6177603;28;20050;-82
2024/03/22 06:07:17;;;;;;;32.20;13.15;;;;;;;;;;6184165;28;20043;-82
2024/03/22 06:10:18;;;;;;;31.40;13.38;;;;;;;;;;6175167;28;20070;-82
2024/03/22 06:13:19;;;;;;;36.90;14.55;;;;;;;;;;6169781;28;20518;-83
2024/03/22 06:16:20;;;;;;;36.63;13.82;;;;;;;;;;6170475;28;20458;-84
2024/03/22 06:19:21;;;;;;;33.67;14.75;;;;;;;;;;6157753;28;20830;-83
2024/03/22 06:22:21;;;;;;;37.65;14.95;;;;;;;;;;6176314;28;20638;-83
2024/03/22 06:25:22;;;;;;;39.40;15.50;;;;;;;;;;6171599;28;20053;-83
2024/03/22 06:28:23;;;;;;;37.45;15.63;;;;;;;;;;6174404;28;20043;-83
2024/03/22 06:31:24;;;;;;;37.85;13.93;;;;;;;;;;6156091;28;20042;-83
2024/03/22 06:34:24;;;;;;;39.45;14.38;;;;;;;;;;6178378;28;20130;-82
2024/03/22 06:37:25;;;;;;;35.75;15.13;;;;;;;;;;6172786;28;20065;-83
2024/03/22 06:40:26;;;;;;;34.65;13.75;;;;;;;;;;6172361;28;20050;-83
2024/03/22 06:43:26;;;;;;;37.78;15.82;;;;;;;;;;6185163;28;20145;-83
2024/03/22 06:46:28;;;;;;;37.05;14.80;;;;;;;;;;6157071;28;20497;-83
2024/03/22 06:49:28;;;;;;;34.85;13.95;;;;;;;;;;6184497;28;20042;-83
2024/03/22 06:52:29;;;;;;;34.10;14.20;;;;;;;;;;6187798;28;20600;-83
2024/03/22 06:55:30;;;;;;;40.95;15.60;;;;;;;;;;6188604;28;20508;-83
2024/03/22 06:58:31;;;;;;;40.67;16.25;;;;;;;;;;6160697;28;20069;-83
2024/03/22 07:01:31;;;;;;;38.13;14.95;;;;;;;;;;6173482;28;20046;-83
2024/03/22 07:04:32;;;;;;;35.90;14.10;;;;;;;;;;6175720;28;20105;-83
2024/03/22 07:07:34;;;;;;;40.72;14.10;;;;;;;;;;6174051;28;20049;-83
2024/03/22 07:10:39;;;;;;;36.33;13.20;;;;;;;;;;6170234;28;20492;-83
2024/03/22 07:13:40;;;;;;;35.92;14.02;;;;;;;;;;6169148;28;20051;-83
2024/03/22 07:16:40;;;;;;;35.92;13.20;;;;;;;;;;6172935;28;20057;-83
2024/03/22 07:19:41;;;;;;;38.67;15.30;;;;;;;;;;6177312;28;20130;-83
2024/03/22 07:22:42;;;;;;;35.08;13.77;;;;;;;;;;6186383;28;20460;-83
2024/03/22 07:25:45;;;;;;;31.83;12.38;;;;;;;;;;6178260;28;20133;-83
2024/03/22 07:28:46;;;;;;;;;;;;;;;;;;6169517;28;20072;-83
2024/03/22 07:31:46;;;;;;;30.98;12.00;;;;;;;;;;6171970;28;19922;-83
2024/03/22 07:34:47;;;;;;;31.20;11.60;;;;;;;;;;6193788;28;20079;-83
2024/03/22 07:37:48;;;;;;;26.75;11.52;;;;;;;;;;6177246;28;20531;-84
2024/03/22 07:40:49;;;;;;;27.00;11.07;;;;;;;;;;6184539;28;20057;-84
2024/03/22 07:43:49;;;;;;;27.05;10.60;;;;;;;;;;6168632;28;20057;-83
2024/03/22 07:46:51;;;;;;;26.67;10.95;;;;;;;;;;6158951;28;20054;-85
2024/03/22 07:49:51;;;;;;;26.63;11.27;;;;;;;;;;6176458;28;20042;-86
2024/03/22 07:52:52;;;;;;;33.50;14.70;;;;;;;;;;6167695;28;20046;-85
2024/03/22 07:55:53;;;;;;;26.95;12.82;;;;;;;;;;6168321;28;20039;-84
2024/03/22 07:58:54;;;;;;;33.85;15.38;;;;;;;;;;6190306;28;20100;-84
2024/03/22 08:01:54;;;;;;;27.98;12.38;;;;;;;;;;6168174;28;20057;-84
2024/03/22 08:04:55;;;;;;;28.65;13.73;;;;;;;;;;6171704;28;20061;-85
2024/03/22 08:07:56;;;;;;;29.05;12.93;;;;;;;;;;6183732;28;20058;-86
2024/03/22 08:10:56;;;;;;;20.50;9.18;;;;;;;;;;6194158;28;20052;-86
2024/03/22 08:14:02;;;;;;;27.05;13.52;;;;;;;;;;6149325;28;20121;-87
2024/03/22 08:17:03;;;;;;;26.65;15.98;;;;;;;;;;6150472;28;20042;-86
2024/03/22 08:20:05;;;;;;;31.70;12.93;;;;;;;;;;6151312;28;20046;-87
2024/03/22 08:23:06;;;;;;;24.17;10.70;;;;;;;;;;6163086;28;20053;-86
2024/03/22 08:26:07;;;;;;;20.83;8.10;;;;;;;;;;6156045;28;20050;-86
2024/03/22 08:29:09;;;;;;;16.40;7.13;;;;;;;;;;6166813;28;20049;-84
2024/03/22 08:32:10;;;;;;;12.98;6.65;;;;;;;;;;6172064;28;20046;-84
2024/03/22 08:35:10;;;;;;;12.18;6.32;;;;;;;;;;6162757;28;20411;-85
2024/03/22 08:38:14;;;;;;;14.30;6.05;;;;;;;;;;6168043;28;20041;-84
2024/03/22 08:41:15;;;;;;;12.55;6.47;;;;;;;;;;6182864;28;20060;-84
2024/03/22 08:44:16;;;;;;;13.15;6.60;;;;;;;;;;6167410;28;20046;-83
2024/03/22 08:47:16;;;;;;;12.77;6.65;;;;;;;;;;6185973;28;20053;-84
2024/03/22 08:50:17;;;;;;;11.98;6.28;;;;;;;;;;6169587;28;20501;-84
2024/03/22 08:53:18;;;;;;;12.15;6.40;;;;;;;;;;6151879;28;20034;-84
2024/03/22 08:56:19;;;;;;;14.82;6.22;;;;;;;;;;6177364;28;20046;-84
2024/03/22 08:59:19;;;;;;;13.32;6.43;;;;;;;;;;6152225;28;20050;-84
2024/03/22 09:02:21;;;;;;;12.60;6.03;;;;;;;;;;6171157;28;20135;-84
2024/03/22 09:05:21;;;;;;;10.65;6.32;;;;;;;;;;6170065;28;20554;-84
2024/03/22 09:08:22;;;;;;;9.93;5.35;;;;;;;;;;6167652;28;20050;-84
2024/03/22 09:11:24;;;;;;;11.43;6.30;;;;;;;;;;6187376;28;20049;-84
2024/03/22 09:14:25;;;;;;;14.23;5.88;;;;;;;;;;6167947;28;20042;-85
2024/03/22 09:17:26;;;;;;;11.63;6.45;;;;;;;;;;6181071;28;20046;-84
2024/03/22 09:20:27;;;;;;;12.02;6.47;;;;;;;;;;6170007;28;20041;-84
2024/03/22 09:23:27;;;;;;;11.75;6.53;;;;;;;;;;6172925;28;20050;-83
2024/03/22 09:26:28;;;;;;;11.35;6.90;;;;;;;;;;6153427;28;20038;-85
2024/03/22 09:29:29;;;;;;;10.77;5.93;;;;;;;;;;6180227;28;20050;-85
2024/03/22 09:32:30;;;;;;;10.55;6.20;;;;;;;;;;6163768;28;20058;-85
2024/03/22 09:35:32;;;;;;;14.05;6.10;;;;;;;;;;6191290;28;20065;-84
2024/03/22 09:38:33;;;;;;;10.80;6.43;;;;;;;;;;6185952;28;20570;-84
2024/03/22 09:41:42;;;;;;;14.95;6.32;;;;;;;;;;6167636;28;20046;-84
2024/03/22 09:44:48;;;;;;;15.63;6.07;;;;;;;;;;6185835;28;20144;-84
2024/03/22 09:47:50;;;;;;;13.48;6.70;;;;;;;;;;6192731;28;20051;-84
2024/03/22 09:50:51;;;;;;;14.45;6.97;;;;;;;;;;6169532;28;20049;-84
2024/03/22 09:53:53;;;;;;;12.77;6.72;;;;;;;;;;6167474;28;20038;-84
2024/03/22 09:56:56;;;;;;;12.68;6.88;;;;;;;;;;6181145;28;20042;-84
2024/03/22 09:59:57;;;;;;;11.45;6.18;;;;;;;;;;6183142;28;20046;-84
2024/03/22 10:02:59;;;;;;;15.07;6.57;;;;;;;;;;6188378;28;20136;-84
2024/03/22 10:06:01;;;;;;;13.60;7.10;;;;;;;;;;6165454;28;20046;-84
2024/03/22 10:09:04;;;;;;;12.77;6.45;;;;;;;;;;6146623;28;20133;-84
2024/03/22 10:12:05;;;;;;;13.95;6.15;;;;;;;;;;6186673;28;20056;-84
2024/03/22 10:15:09;;;;;;;11.98;7.35;;;;;;;;;;6161108;28;20047;-84
2024/03/22 10:18:10;;;;;;;17.83;5.65;;;;;;;;;;6152856;28;20042;-84
2024/03/22 10:21:11;;;;;;;12.40;5.90;;;;;;;;;;6166195;28;20526;-85
2024/03/22 10:24:11;;;;;;;10.38;6.03;;;;;;;;;;6154807;28;20037;-85
2024/03/22 10:27:13;;;;;;;15.65;6.68;;;;;;;;;;6170539;28;20073;-84
2024/03/22 10:30:16;;;;;;;13.50;6.65;;;;;;;;;;6169657;28;20411;-84
2024/03/22 10:33:19;;;;;;;9.02;5.55;;;;;;;;;;6183038;28;20030;-84
2024/03/22 10:36:20;;;;;;;10.30;5.40;;;;;;;;;;6186253;28;20053;-84
2024/03/22 10:39:23;;;;;;;10.52;5.80;;;;;;;;;;6187722;28;20046;-84
2024/03/22 10:42:23;;;;;;;10.75;5.43;;;;;;;;;;6160077;28;20038;-85
2024/03/22 10:45:27;;;;;;;7.82;5.03;;;;;;;;;;6151855;28;20054;-85
2024/03/22 10:48:30;;;;;;;8.80;4.85;;;;;;;;;;6177675;28;20052;-85
2024/03/22 10:51:34;;;;;;;7.53;4.03;;;;;;;;;;6153675;28;20047;-86
2024/03/22 10:54:39;;;;;;;8.00;4.50;;;;;;;;;;6168294;28;20068;-85
2024/03/22 10:57:40;;;;;;;15.80;4.95;;;;;;;;;;6155207;28;20042;-84
2024/03/22 11:00:45;;;;;;;9.20;4.70;;;;;;;;;;6148243;28;20050;-84
2024/03/22 11:03:46;;;;;;;5.97;4.13;;;;;;;;;;6173028;28;20042;-84
2024/03/22 11:06:48;;;;;;;7.93;4.28;;;;;;;;;;6157030;28;20053;-85
2024/03/22 11:09:52;;;;;;;6.60;3.97;;;;;;;;;;6185133;28;20402;-84
2024/03/22 11:12:53;;;;;;;7.10;4.63;;;;;;;;;;6170010;28;20053;-84
2024/03/22 11:15:54;;;;;;;11.63;4.97;;;;;;;;;;6173440;28;20046;-84
2024/03/22 11:18:55;;;;;;;7.57;4.53;;;;;;;;;;6157375;28;20566;-84
2024/03/22 11:21:56;;;;;;;8.57;5.45;;;;;;;;;;6184667;28;20046;-85
2024/03/22 11:24:56;;;;;;;8.40;5.15;;;;;;;;;;6150512;28;20076;-84
2024/03/22 11:27:58;;;;;;;8.52;5.25;;;;;;;;;;6152340;28;20108;-84
2024/03/22 11:30:58;;;;;;;9.68;5.13;;;;;;;;;;6151949;28;20089;-84
2024/03/22 11:34:00;;;;;;;9.50;5.22;;;;;;;;;;6190820;28;20771;-84
2024/03/22 11:37:00;;;;;;;11.15;5.53;;;;;;;;;;6160994;28;20039;-84
2024/03/22 11:40:05;;;;;;;10.75;5.72;;;;;;;;;;6176957;28;20426;-84
2024/03/22 11:43:06;;;;;;;8.90;5.22;;;;;;;;;;6165388;28;20523;-84
2024/03/22 11:46:07;;;;;;;8.63;5.07;;;;;;;;;;6155198;28;20046;-84
2024/03/22 11:49:07;;;;;;;9.45;5.47;;;;;;;;;;6182257;28;20405;-84
2024/03/22 11:52:08;;;;;;;8.32;5.40;;;;;;;;;;6182781;28;20522;-84
2024/03/22 11:55:13;;;;;;;9.13;5.85;;;;;;;;;;6172072;28;20043;-84
2024/03/22 11:58:13;;;;;;;10.10;5.75;;;;;;;;;;6183144;28;20050;-84
2024/03/22 12:01:20;;;;;;;10.75;5.68;;;;;;;;;;6158167;28;20355;-84
2024/03/22 12:04:20;;;;;;;11.07;5.53;;;;;;;;;;6176508;28;20053;-84
2024/03/22 12:07:21;;;;;;;9.63;5.47;;;;;;;;;;6167680;28;20965;-84
2024/03/22 12:10:23;;;;;;;9.13;5.18;;;;;;;;;;6151028;28;20050;-84
2024/03/22 12:13:24;;;;;;;9.07;5.68;;;;;;;;;;6146243;28;20042;-84
2024/03/22 12:16:25;;;;;;;10.75;5.55;;;;;;;;;;6162213;28;20576;-84
2024/03/22 12:19:26;;;;;;;11.35;5.32;;;;;;;;;;6169291;28;20038;-84
2024/03/22 12:22:28;;;;;;;12.60;5.70;;;;;;;;;;6167495;28;20353;-84
2024/03/22 12:25:29;;;;;;;10.48;6.03;;;;;;;;;;6144688;28;20066;-84
2024/03/22 12:28:30;;;;;;;11.40;5.97;;;;;;;;;;6171418;28;20039;-85
2024/03/22 12:31:31;;;;;;;11.70;6.38;;;;;;;;;;6167756;28;20037;-84
2024/03/22 12:34:33;;;;;;;12.32;6.30;;;;;;;;;;6158248;28;20510;-86
2024/03/22 12:37:33;;;;;;;9.88;6.05;;;;;;;;;;6164150;28;20041;-86
2024/03/22 12:40:34;;;;;;;11.90;6.60;;;;;;;;;;6162585;28;20655;-88
2024/03/22 12:43:35;;;;;;;10.52;5.82;;;;;;;;;;6168195;28;20053;-86
2024/03/22 12:46:36;;;;;;;8.93;5.57;;;;;;;;;;6168062;28;20045;-88
2024/03/22 12:49:36;;;;;;;9.52;5.90;;;;;;;;;;6184690;28;20294;-87
2024/03/22 12:52:37;;;;;;;10.48;6.30;;;;;;;;;;6180852;28;20062;-87
2024/03/22 12:55:38;;;;;;;10.35;5.47;;;;;;;;;;6181859;28;20101;-84
2024/03/22 12:58:39;;;;;;;10.13;5.80;;;;;;;;;;6154450;28;20065;-84
2024/03/22 13:01:39;;;;;;;9.60;5.35;;;;;;;;;;6157953;28;20307;-84
2024/03/22 13:04:40;;;;;;;11.40;6.05;;;;;;;;;;6173097;28;20049;-85
2024/03/22 13:07:42;;;;;;;10.07;6.03;;;;;;;;;;6170778;28;20396;-85
2024/03/22 13:10:44;;;;;;;8.57;5.07;;;;;;;;;;6159595;28;20062;-85
2024/03/22 13:13:45;;;;;;;14.35;5.88;;;;;;;;;;6147934;28;20058;-85
2024/03/22 13:16:46;;;;;;;10.88;5.65;;;;;;;;;;6171645;28;20052;-84
2024/03/22 13:19:47;;;;;;;10.68;5.90;;;;;;;;;;6169310;28;20042;-85
2024/03/22 13:22:48;;;;;;;10.95;6.15;;;;;;;;;;6152582;28;20411;-85
2024/03/22 13:25:49;;;;;;;11.27;6.47;;;;;;;;;;6179066;28;20128;-83
2024/03/22 13:28:49;;;;;;;14.63;6.43;;;;;;;;;;6168835;28;20050;-84
2024/03/22 13:31:50;;;;;;;11.35;6.30;;;;;;;;;;6164979;28;20137;-83
2024/03/22 13:34:51;;;;;;;11.75;5.85;;;;;;;;;;6189792;28;20045;-83
2024/03/22 13:37:52;;;;;;;9.70;6.13;;;;;;;;;;6158720;28;20130;-83
2024/03/22 13:40:57;;;;;;;10.40;6.40;;;;;;;;;;6176532;28;20042;-83
2024/03/22 13:43:57;;;;;;;8.35;5.80;;;;;;;;;;6167648;28;20088;-83
2024/03/22 13:46:58;;;;;;;9.80;5.65;;;;;;;;;;6182857;28;20042;-84
2024/03/22 13:49:59;;;;;;;13.75;6.72;;;;;;;;;;6167288;28;20138;-84
2024/03/22 13:52:59;;;;;;;10.10;6.32;;;;;;;;;;6173509;28;20112;-83
2024/03/22 13:56:01;;;;;;;13.57;6.75;;;;;;;;;;6164578;28;20046;-83
2024/03/22 13:59:02;;;;;;;10.85;5.35;;;;;;;;;;6172622;28;20042;-84
2024/03/22 14:02:03;;;;;;;10.60;5.88;;;;;;;;;;6153687;28;20594;-84
2024/03/22 14:05:04;;;;;;;7.72;5.28;;;;;;;;;;6169972;28;20129;-84
2024/03/22 14:08:05;;;;;;;11.93;5.93;;;;;;;;;;6169110;28;20789;-84
2024/03/22 14:11:06;;;;;;;11.30;5.75;;;;;;;;;;6169403;28;20046;-83
2024/03/22 14:14:07;;;;;;;12.18;6.88;;;;;;;;;;6162630;28;20069;-84
2024/03/22 14:17:08;;;;;;;12.48;6.32;;;;;;;;;;6158472;28;20100;-84
2024/03/22 14:20:11;;;;;;;13.50;7.03;;;;;;;;;;6169184;28;20133;-84
2024/03/22 14:23:12;;;;;;;15.88;7.68;;;;;;;;;;6176201;28;20106;-86
2024/03/22 14:26:14;;;;;;;13.38;7.45;;;;;;;;;;6201934;28;20058;-86
2024/03/22 14:29:14;;;;;;;14.40;7.38;;;;;;;;;;6213222;28;20052;-85
2024/03/22 14:32:15;;;;;;;13.65;8.00;;;;;;;;;;6192563;28;20042;-85
2024/03/22 14:35:16;;;;;;;13.75;7.07;;;;;;;;;;6174506;28;20499;-87
2024/03/22 14:38:17;;;;;;;13.32;7.47;;;;;;;;;;6185551;28;20049;-85
2024/03/22 14:41:18;;;;;;;12.68;6.97;;;;;;;;;;6171054;28;20038;-85
2024/03/22 14:44:19;;;;;;;17.23;9.02;;;;;;;;;;6192189;28;20085;-85
2024/03/22 14:47:20;;;;;;;12.07;6.78;;;;;;;;;;6179946;28;20060;-84
2024/03/22 14:50:22;;;;;;;11.95;7.22;;;;;;;;;;6173531;28;20043;-84
2024/03/22 14:53:24;;;;;;;15.65;7.30;;;;;;;;;;6172022;28;20046;-85
2024/03/22 14:56:24;;;;;;;12.55;7.75;;;;;;;;;;6154681;28;20850;-85
2024/03/22 14:59:28;;;;;;;12.10;7.43;;;;;;;;;;6167125;28;20125;-86
2024/03/22 15:02:29;;;;;;;13.38;7.22;;;;;;;;;;6196718;28;21187;-86
2024/03/22 15:05:31;;;;;;;11.25;6.95;;;;;;;;;;6167510;28;20133;-85
2024/03/22 15:08:32;;;;;;;14.70;7.57;;;;;;;;;;6184598;28;20042;-85
2024/03/22 15:11:33;;;;;;;10.90;6.95;;;;;;;;;;6151374;28;20053;-85
2024/03/22 15:14:34;;;;;;;10.85;6.78;;;;;;;;;;6148399;28;20034;-85
2024/03/22 15:17:35;;;;;;;13.27;7.60;;;;;;;;;;6155424;28;20683;-85
2024/03/22 15:20:36;;;;;;;11.02;6.68;;;;;;;;;;6166516;28;20047;-85
2024/03/22 15:23:37;;;;;;;9.93;6.22;;;;;;;;;;6170706;28;20045;-85
2024/03/22 15:26:38;;;;;;;11.48;6.43;;;;;;;;;;6168602;28;20515;-85
2024/03/22 15:29:39;;;;;;;11.02;6.57;;;;;;;;;;6147716;28;20046;-85
2024/03/22 15:32:44;;;;;;;12.85;6.72;;;;;;;;;;6171148;28;20142;-85
2024/03/22 15:35:49;;;;;;;12.57;6.47;;;;;;;;;;6183374;28;20102;-84
2024/03/22 15:38:50;;;;;;;11.88;6.85;;;;;;;;;;6165770;28;20415;-87
2024/03/22 15:41:54;;;;;;;11.70;6.88;;;;;;;;;;6164463;28;20046;-85
2024/03/22 15:44:55;;;;;;;15.15;8.60;;;;;;;;;;6163258;28;20039;-86
2024/03/22 15:47:56;;;;;;;11.82;6.88;;;;;;;;;;6154865;28;20145;-87
2024/03/22 15:50:57;;;;;;;13.98;10.43;;;;;;;;;;6182757;28;20199;-88
2024/03/22 15:53:58;;;;;;;10.13;5.70;;;;;;;;;;6159502;28;20050;-86
2024/03/22 15:56:59;;;;;;;17.05;9.85;;;;;;;;;;6190069;28;20106;-84
2024/03/22 15:59:59;;;;;;;9.30;6.15;;;;;;;;;;6169679;28;20050;-84
2024/03/22 16:03:01;;;;;;;11.65;7.28;;;;;;;;;;6160632;28;20132;-86
2024/03/22 16:06:01;;;;;;;13.57;8.40;;;;;;;;;;6163302;28;20101;-87
2024/03/22 16:09:05;;;;;;;11.93;7.45;;;;;;;;;;6166576;28;20061;-87
2024/03/22 16:12:10;;;;;;;9.18;5.95;;;;;;;;;;6150345;28;20069;-88
2024/03/22 16:15:11;;;;;;;6.88;5.35;;;;;;;;;;6164397;28;20062;-86
2024/03/22 16:18:12;;;;;;;9.10;6.28;;;;;;;;;;6169737;28;20065;-86
2024/03/22 16:21:13;;;;;;;13.93;11.73;;;;;;;;;;6163558;28;20639;-84
2024/03/22 16:24:14;;;;;;;11.00;5.85;;;;;;;;;;6150547;28;20118;-85
2024/03/22 16:27:14;;;;;;;12.73;7.88;;;;;;;;;;6165070;28;20077;-85
2024/03/22 16:30:16;;;;;;;9.27;3.75;;;;;;;;;;6160709;28;20050;-85
2024/03/22 16:33:17;;;;;;;10.27;7.22;;;;;;;;;;6169545;28;20797;-86
2024/03/22 16:36:18;;;;;;;6.65;4.22;;;;;;;;;;6169115;28;20057;-84
2024/03/22 16:39:20;;;;;;;5.90;4.35;;;;;;;;;;6151980;28;20101;-84
2024/03/22 16:42:22;;;;;;;7.28;4.53;;;;;;;;;;6167647;28;20562;-87
2024/03/22 16:45:23;;;;;;;10.07;7.22;;;;;;;;;;6181331;28;20058;-86
2024/03/22 16:48:23;;;;;;;5.38;4.43;;;;;;;;;;6172666;28;20049;-87
2024/03/22 16:51:24;;;;;;;7.07;3.78;;;;;;;;;;6166578;28;20447;-88
2024/03/22 16:54:25;;;;;;;7.15;4.18;;;;;;;;;;6162812;28;20761;-87
2024/03/22 16:57:29;;;;;;;7.07;4.70;;;;;;;;;;6170157;28;20108;-84
2024/03/22 17:00:30;;;;;;;6.57;4.75;;;;;;;;;;6166579;28;20216;-85
2024/03/22 17:03:31;;;;;;;5.70;3.50;;;;;;;;;;6169553;28;20099;-84
2024/03/22 17:06:31;;;;;;;7.97;3.80;;;;;;;;;;6151032;28;20042;-86
2024/03/22 17:09:35;;;;;;;9.02;6.32;;;;;;;;;;6179400;28;20388;-85
2024/03/22 17:12:38;;;;;;;4.93;3.80;;;;;;;;;;6155755;28;20190;-87
2024/03/22 17:15:38;;;;;;;5.97;3.88;;;;;;;;;;6160923;28;20500;-86
2024/03/22 17:18:39;;;;;;;8.70;6.13;;;;;;;;;;6190092;28;20053;-86
2024/03/22 17:21:40;;;;;;;5.22;3.85;;;;;;;;;;6145675;28;20057;-86
2024/03/22 17:24:45;;;;;;;10.23;4.55;;;;;;;;;;6177425;28;20566;-87
2024/03/22 17:27:46;;;;;;;13.10;7.72;;;;;;;;;;6170049;28;20050;-87
2024/03/22 17:30:47;;;;;;;6.55;3.33;;;;;;;;;;6198249;28;20030;-90
2024/03/22 17:33:48;;;;;;;7.60;4.05;;;;;;;;;;6178379;28;20052;-89
2024/03/22 17:36:49;;;;;;;7.88;4.68;;;;;;;;;;6140758;28;20066;-88
2024/03/22 17:39:50;;;;;;;7.53;3.10;;;;;;;;;;6165230;28;20042;-88
2024/03/22 17:42:50;;;;;;;9.57;4.18;;;;;;;;;;6183131;28;20045;-86
2024/03/22 17:45:56;;;;;;;6.40;3.33;;;;;;;;;;6165177;28;20128;-87
2024/03/22 17:48:56;;;;;;;7.68;4.03;;;;;;;;;;6150044;28;20499;-85